createdAt,value
2022-11-05T00:00:34.959Z,7.55
2022-11-05T00:03:20.473Z,8.63
2022-11-05T00:06:09.836Z,7.93
2022-11-05T00:08:54.937Z,8.15
2022-11-05T00:11:44.507Z,7.88
2022-11-05T00:14:30.419Z,7.80
2022-11-05T00:16:58.523Z,7.97
2022-11-05T00:19:26.799Z,7.57
2022-11-05T00:22:18.286Z,7.70
2022-11-05T00:25:03.729Z,7.72
2022-11-05T00:27:35.655Z,7.45
2022-11-05T00:30:04.025Z,8.00
2022-11-05T00:32:32.826Z,8.25
2022-11-05T00:35:01.062Z,7.63
2022-11-05T00:37:29.418Z,8.45
2022-11-05T00:39:57.615Z,8.40
2022-11-05T00:42:42.990Z,8.40
2022-11-05T00:45:12.837Z,8.68
2022-11-05T00:47:59.170Z,8.40
2022-11-05T00:50:27.531Z,8.38
2022-11-05T00:52:57.950Z,9.10
2022-11-05T00:55:29.068Z,8.70
2022-11-05T00:57:57.721Z,8.43
2022-11-05T01:00:29.347Z,9.38
2022-11-05T01:02:59.821Z,9.15
2022-11-05T01:05:28.839Z,8.65
2022-11-05T01:07:57.269Z,9.00
2022-11-05T01:10:26.036Z,9.10
2022-11-05T01:12:54.793Z,8.60
2022-11-05T01:15:23.367Z,10.05
2022-11-05T01:17:53.510Z,9.48
2022-11-05T01:20:21.643Z,8.98
2022-11-05T01:22:49.786Z,8.93
2022-11-05T01:25:18.132Z,9.30
2022-11-05T01:27:46.709Z,9.13
2022-11-05T01:30:15.274Z,9.30
2022-11-05T01:32:43.916Z,9.48
2022-11-05T01:35:16.863Z,9.25
2022-11-05T01:37:45.723Z,8.48
2022-11-05T01:40:15.803Z,9.30
2022-11-05T01:42:44.328Z,8.70
2022-11-05T01:45:16.441Z,8.90
2022-11-05T01:47:57.936Z,8.73
2022-11-05T01:50:35.635Z,8.35
2022-11-05T01:53:10.591Z,8.98
2022-11-05T01:55:43.281Z,9.35
2022-11-05T01:58:15.014Z,8.20
2022-11-05T02:00:44.804Z,8.77
2022-11-05T02:03:16.189Z,8.95
2022-11-05T02:05:47.272Z,8.80
2022-11-05T02:08:21.666Z,8.43
2022-11-05T02:10:50.531Z,8.52
2022-11-05T02:13:18.690Z,8.57
2022-11-05T02:15:56.213Z,8.65
2022-11-05T02:18:37.653Z,8.82
2022-11-05T02:21:23.106Z,8.75
2022-11-05T02:24:18.807Z,8.55
2022-11-05T02:27:19.995Z,8.23
2022-11-05T02:30:06.799Z,9.23
2022-11-05T02:32:49.706Z,9.35
2022-11-05T02:35:29.250Z,8.77
2022-11-05T02:38:07.747Z,9.00
2022-11-05T02:40:46.600Z,8.68
2022-11-05T02:43:25.838Z,9.45
2022-11-05T02:46:09.473Z,8.23
2022-11-05T02:48:47.095Z,9.32
2022-11-05T02:51:23.464Z,8.10
2022-11-05T02:53:57.847Z,8.10
2022-11-05T02:56:29.746Z,8.88
2022-11-05T02:58:57.846Z,8.80
2022-11-05T03:01:26.063Z,8.50
2022-11-05T03:04:00.614Z,7.97
2022-11-05T03:06:57.363Z,8.18
2022-11-05T03:09:57.235Z,8.10
2022-11-05T03:12:44.275Z,8.05
2022-11-05T03:15:25.383Z,7.90
2022-11-05T03:18:03.131Z,7.45
2022-11-05T03:20:38.400Z,7.57
2022-11-05T03:23:13.640Z,7.68
2022-11-05T03:25:47.352Z,7.60
2022-11-05T03:28:18.000Z,7.40
2022-11-05T03:30:46.980Z,7.38
2022-11-05T03:33:20.336Z,7.53
2022-11-05T03:35:54.536Z,7.90
2022-11-05T03:38:27.043Z,7.80
2022-11-05T03:40:58.725Z,8.00
2022-11-05T03:43:31.360Z,7.78
2022-11-05T03:46:03.300Z,7.28
2022-11-05T03:48:32.654Z,7.40
2022-11-05T03:51:08.036Z,7.45
2022-11-05T03:53:43.197Z,7.07
2022-11-05T03:56:15.921Z,7.28
2022-11-05T03:58:45.263Z,8.15
2022-11-05T04:01:13.825Z,9.15
2022-11-05T04:03:42.053Z,8.57
2022-11-05T04:06:29.076Z,8.48
2022-11-05T04:09:14.613Z,7.63
2022-11-05T04:12:00.229Z,8.60
2022-11-05T04:14:28.606Z,8.25
2022-11-05T04:17:09.423Z,7.88
2022-11-05T04:19:57.036Z,7.50
2022-11-05T04:22:45.224Z,7.70
2022-11-05T04:25:14.042Z,8.07
2022-11-05T04:27:42.375Z,7.63
2022-11-05T04:30:19.468Z,7.13
2022-11-05T04:33:03.604Z,8.00
2022-11-05T04:35:33.402Z,7.43
2022-11-05T04:38:03.142Z,8.05
2022-11-05T04:40:31.628Z,8.30
2022-11-05T04:43:00.137Z,7.93
2022-11-05T04:45:30.441Z,7.80
2022-11-05T04:47:58.542Z,8.90
2022-11-05T04:50:26.648Z,8.77
2022-11-05T04:52:54.983Z,9.63
2022-11-05T04:55:24.690Z,9.10
2022-11-05T04:57:54.131Z,8.45
2022-11-05T05:00:23.850Z,9.40
2022-11-05T05:02:52.044Z,9.77
2022-11-05T05:05:21.313Z,10.40
2022-11-05T05:07:49.599Z,9.85
2022-11-05T05:10:17.847Z,9.90
2022-11-05T05:12:48.467Z,9.05
2022-11-05T05:15:17.108Z,9.40
2022-11-05T05:17:45.217Z,10.15
2022-11-05T05:20:31.233Z,10.38
2022-11-05T05:22:59.594Z,9.65
2022-11-05T05:25:27.696Z,9.30
2022-11-05T05:27:59.824Z,10.27
2022-11-05T05:30:28.032Z,9.25
2022-11-05T05:32:56.126Z,10.40
2022-11-05T05:35:24.386Z,9.40
2022-11-05T05:37:56.681Z,9.82
2022-11-05T05:40:25.139Z,10.55
2022-11-05T05:42:55.350Z,10.45
2022-11-05T05:45:25.083Z,10.45
2022-11-05T05:47:55.643Z,11.20
2022-11-05T05:50:23.797Z,10.65
2022-11-05T05:52:52.159Z,12.13
2022-11-05T05:55:20.256Z,11.75
2022-11-05T05:57:48.348Z,12.52
2022-11-05T06:00:17.065Z,12.20
2022-11-05T06:02:46.644Z,13.75
2022-11-05T06:05:14.986Z,13.88
2022-11-05T06:07:43.259Z,16.30
2022-11-05T06:10:11.649Z,15.23
2022-11-05T06:12:39.904Z,15.13
2022-11-05T06:15:09.055Z,16.13
2022-11-05T06:17:37.227Z,16.13
2022-11-05T06:20:09.791Z,16.48
2022-11-05T06:22:38.320Z,16.95
2022-11-05T06:25:07.573Z,17.05
2022-11-05T06:27:36.807Z,17.40
2022-11-05T06:30:05.994Z,18.27
2022-11-05T06:32:34.079Z,17.73
2022-11-05T06:35:02.289Z,17.67
2022-11-05T06:37:33.526Z,16.80
2022-11-05T06:40:02.611Z,18.33
2022-11-05T06:42:30.995Z,18.10
2022-11-05T06:44:59.168Z,17.08
2022-11-05T06:47:27.331Z,17.17
2022-11-05T06:49:57.356Z,17.67
2022-11-05T06:52:27.258Z,17.90
2022-11-05T06:54:56.797Z,17.30
2022-11-05T06:57:25.002Z,17.60
2022-11-05T06:59:58.738Z,19.23
2022-11-05T07:02:29.041Z,16.02
2022-11-05T07:04:57.177Z,15.70
2022-11-05T07:07:25.308Z,15.07
2022-11-05T07:09:53.662Z,15.27
2022-11-05T07:12:23.369Z,13.98
2022-11-05T07:14:51.551Z,13.95
2022-11-05T07:17:20.017Z,13.68
2022-11-05T07:19:48.174Z,13.77
2022-11-05T07:22:16.415Z,14.25
2022-11-05T07:24:47.216Z,13.32
2022-11-05T07:27:15.362Z,9.93
2022-11-05T07:29:45.101Z,8.85
2022-11-05T07:32:13.262Z,8.32
2022-11-05T07:34:41.551Z,7.68
2022-11-05T07:37:10.158Z,6.25
2022-11-05T07:39:38.271Z,6.57
2022-11-05T07:42:06.600Z,6.78
2022-11-05T07:44:35.011Z,6.57
2022-11-05T07:47:04.604Z,6.82
2022-11-05T07:49:32.676Z,6.95
2022-11-05T07:52:01.021Z,6.30
2022-11-05T07:54:29.203Z,6.47
2022-11-05T07:56:57.322Z,5.90
2022-11-05T07:59:25.490Z,5.40
2022-11-05T08:01:53.614Z,5.38
2022-11-05T08:04:23.372Z,6.20
2022-11-05T08:06:51.656Z,7.10
2022-11-05T08:09:19.794Z,6.70
2022-11-05T08:11:47.925Z,6.30
2022-11-05T08:14:16.374Z,6.32
2022-11-05T08:16:44.447Z,6.35
2022-11-05T08:19:12.715Z,6.00
2022-11-05T08:21:42.573Z,5.85
2022-11-05T08:24:11.150Z,7.68
2022-11-05T08:26:39.289Z,7.55
2022-11-05T08:29:09.410Z,8.57
2022-11-05T08:31:38.159Z,8.63
2022-11-05T08:34:06.299Z,8.65
2022-11-05T08:36:36.082Z,7.20
2022-11-05T08:39:05.668Z,8.68
2022-11-05T08:41:33.723Z,7.97
2022-11-05T08:44:02.031Z,9.10
2022-11-05T08:46:30.120Z,10.18
2022-11-05T08:48:58.640Z,8.40
2022-11-05T08:51:26.815Z,9.13
2022-11-05T08:53:54.946Z,7.78
2022-11-05T08:56:24.650Z,8.30
2022-11-05T08:58:52.980Z,8.40
2022-11-05T09:01:21.192Z,9.02
2022-11-05T09:03:52.471Z,9.07
2022-11-05T09:06:21.045Z,8.40
2022-11-05T09:08:49.200Z,9.07
2022-11-05T09:11:18.191Z,9.38
2022-11-05T09:13:48.025Z,8.85
2022-11-05T09:16:20.732Z,8.75
2022-11-05T09:18:50.192Z,8.88
2022-11-05T09:21:18.549Z,9.57
2022-11-05T09:23:47.529Z,9.80
2022-11-05T09:26:15.934Z,10.57
2022-11-05T09:28:44.449Z,10.52
2022-11-05T09:31:14.889Z,10.07
2022-11-05T09:33:43.333Z,9.30
2022-11-05T09:36:11.772Z,9.70
2022-11-05T09:38:39.918Z,9.13
2022-11-05T09:41:13.980Z,9.77
2022-11-05T09:43:45.624Z,9.68
2022-11-05T09:46:19.952Z,9.48
2022-11-05T09:48:50.924Z,8.52
2022-11-05T09:51:23.856Z,8.00
2022-11-05T09:53:53.726Z,8.75
2022-11-05T09:56:25.165Z,8.60
2022-11-05T09:58:58.575Z,9.48
2022-11-05T10:01:31.947Z,8.77
2022-11-05T10:04:03.876Z,8.45
2022-11-05T10:06:32.158Z,8.20
2022-11-05T10:09:06.564Z,8.00
2022-11-05T10:11:40.857Z,8.23
2022-11-05T10:14:16.068Z,8.07
2022-11-05T10:16:50.046Z,8.07
2022-11-05T10:19:24.332Z,8.15
2022-11-05T10:22:10.965Z,8.73
2022-11-05T10:24:42.164Z,8.00
2022-11-05T10:27:17.626Z,7.90
2022-11-05T10:29:46.635Z,8.38
2022-11-05T10:32:22.880Z,8.25
2022-11-05T10:34:52.565Z,8.15
2022-11-05T10:37:22.712Z,8.25
2022-11-05T10:39:51.048Z,8.45
2022-11-05T10:42:44.087Z,8.13
2022-11-05T10:45:22.340Z,7.80
2022-11-05T10:48:06.298Z,8.68
2022-11-05T10:53:08.320Z,8.45
2022-11-05T10:55:38.597Z,8.82
2022-11-05T10:58:12.140Z,8.75
2022-11-05T11:00:40.960Z,8.15
2022-11-05T11:03:36.320Z,8.80
2022-11-05T11:06:07.829Z,8.23
2022-11-05T11:08:37.816Z,8.15
2022-11-05T11:11:08.955Z,7.97
2022-11-05T11:13:52.713Z,7.40
2022-11-05T11:16:23.182Z,7.20
2022-11-05T11:18:57.183Z,7.82
2022-11-05T11:21:26.356Z,6.88
2022-11-05T11:23:58.809Z,7.20
2022-11-05T11:26:30.012Z,7.70
2022-11-05T11:29:00.954Z,7.43
2022-11-05T11:31:31.246Z,7.55
2022-11-05T11:34:04.312Z,7.95
2022-11-05T11:36:39.572Z,7.88
2022-11-05T11:39:13.355Z,7.30
2022-11-05T11:41:43.976Z,8.18
2022-11-05T11:44:17.349Z,8.27
2022-11-05T11:46:49.540Z,7.80
2022-11-05T11:49:34.476Z,8.02
2022-11-05T11:52:06.063Z,8.00
2022-11-05T11:54:35.451Z,7.80
2022-11-05T11:57:04.136Z,8.40
2022-11-05T12:00:06.585Z,8.15
2022-11-05T12:02:48.299Z,8.13
2022-11-05T12:05:31.652Z,8.68
2022-11-05T12:08:07.835Z,8.30
2022-11-05T12:10:45.631Z,8.40
2022-11-05T12:13:45.871Z,8.82
2022-11-05T12:16:22.604Z,8.23
2022-11-05T12:18:59.062Z,8.05
2022-11-05T12:21:52.120Z,8.10
2022-11-05T12:24:38.343Z,7.82
2022-11-05T12:27:19.804Z,7.57
2022-11-05T12:29:59.154Z,7.93
2022-11-05T12:32:45.277Z,7.22
2022-11-05T12:35:30.875Z,7.70
2022-11-05T12:38:12.458Z,8.15
2022-11-05T12:40:52.544Z,7.75
2022-11-05T12:43:31.296Z,7.90
2022-11-05T12:46:07.667Z,8.07
2022-11-05T12:48:55.778Z,8.80
2022-11-05T12:51:39.239Z,8.27
2022-11-05T12:54:17.572Z,8.88
2022-11-05T12:56:49.459Z,8.38
2022-11-05T12:59:24.156Z,8.98
2022-11-05T13:01:58.886Z,9.20
2022-11-05T13:04:35.458Z,9.15
2022-11-05T13:07:07.817Z,8.75
2022-11-05T13:09:42.637Z,9.38
2022-11-05T13:12:15.753Z,9.10
2022-11-05T13:14:48.083Z,9.18
2022-11-05T13:17:19.587Z,8.98
2022-11-05T13:19:52.031Z,8.90
2022-11-05T13:22:34.358Z,8.85
2022-11-05T13:25:11.643Z,9.43
2022-11-05T13:27:52.158Z,8.63
2022-11-05T13:30:23.330Z,8.73
2022-11-05T13:32:57.699Z,8.90
2022-11-05T13:35:31.054Z,8.57
2022-11-05T13:38:23.239Z,8.95
2022-11-05T13:41:20.264Z,9.38
2022-11-05T13:44:15.116Z,9.00
2022-11-05T13:47:06.438Z,9.57
2022-11-05T13:50:04.109Z,9.18
2022-11-05T13:52:56.001Z,8.35
2022-11-05T13:55:56.504Z,9.20
2022-11-05T13:58:56.151Z,8.50
2022-11-05T14:01:43.488Z,8.55
2022-11-05T14:04:32.412Z,9.25
2022-11-05T14:07:08.806Z,8.52
2022-11-05T14:09:39.085Z,9.70
2022-11-05T14:12:17.542Z,9.15
2022-11-05T14:14:58.412Z,7.75
2022-11-05T14:17:31.946Z,8.52
2022-11-05T14:20:41.750Z,7.43
2022-11-05T14:23:38.424Z,8.10
2022-11-05T14:26:25.553Z,7.15
2022-11-05T14:29:29.226Z,7.85
2022-11-05T14:32:09.564Z,7.40
2022-11-05T14:34:47.368Z,7.15
2022-11-05T14:37:41.424Z,7.60
2022-11-05T14:40:30.284Z,7.13
2022-11-05T14:43:01.557Z,6.90
2022-11-05T14:45:32.309Z,6.72
2022-11-05T14:48:04.046Z,7.25
2022-11-05T14:50:37.020Z,6.53
2022-11-05T14:53:26.392Z,6.85
2022-11-05T14:56:02.140Z,7.00
2022-11-05T14:58:36.630Z,6.65
2022-11-05T15:01:07.071Z,6.60
2022-11-05T15:04:01.935Z,6.05
2022-11-05T15:06:33.137Z,6.97
2022-11-05T15:09:29.201Z,7.00
2022-11-05T15:12:14.841Z,7.38
2022-11-05T15:14:54.218Z,6.25
2022-11-05T15:17:29.706Z,6.40
2022-11-05T15:20:09.097Z,6.45
2022-11-05T15:22:41.577Z,5.82
2022-11-05T15:25:18.721Z,6.28
2022-11-05T15:27:59.164Z,5.88
2022-11-05T15:30:27.873Z,6.00
2022-11-05T15:32:56.090Z,5.43
2022-11-05T15:35:28.790Z,5.65
2022-11-05T15:38:02.026Z,7.00
2022-11-05T15:40:32.761Z,6.63
2022-11-05T15:43:11.457Z,6.50
2022-11-05T15:45:40.284Z,6.68
2022-11-05T15:48:15.826Z,7.47
2022-11-05T15:50:45.701Z,7.82
2022-11-05T15:56:13.904Z,7.90
2022-11-05T15:58:48.262Z,7.18
2022-11-05T16:01:28.027Z,7.95
2022-11-05T16:03:57.971Z,8.02
2022-11-05T16:06:31.179Z,7.90
2022-11-05T16:08:59.447Z,7.95
2022-11-05T16:11:28.360Z,8.30
2022-11-05T16:14:15.060Z,8.00
2022-11-05T16:16:44.161Z,8.07
2022-11-05T16:19:40.545Z,7.55
2022-11-05T16:22:10.590Z,7.68
2022-11-05T16:24:39.162Z,7.25
2022-11-05T16:27:07.593Z,7.65
2022-11-05T16:29:38.020Z,7.68
2022-11-05T16:32:08.261Z,7.40
2022-11-05T16:34:40.682Z,7.88
2022-11-05T16:37:14.646Z,7.32
2022-11-05T16:39:43.057Z,7.47
2022-11-05T16:42:37.924Z,6.90
2022-11-05T16:45:07.087Z,7.57
2022-11-05T16:47:35.266Z,6.90
2022-11-05T16:50:03.694Z,6.85
2022-11-05T16:52:33.147Z,6.88
2022-11-05T16:55:01.222Z,6.15
2022-11-05T16:57:31.314Z,6.70
2022-11-05T17:00:01.501Z,6.85
2022-11-05T17:02:29.917Z,6.60
2022-11-05T17:04:58.199Z,7.03
2022-11-05T17:07:26.586Z,7.00
2022-11-05T17:09:56.343Z,6.70
2022-11-05T17:12:24.487Z,7.20
2022-11-05T17:14:52.900Z,7.40
2022-11-05T17:17:21.052Z,8.88
2022-11-05T17:19:49.301Z,7.35
2022-11-05T17:22:17.648Z,6.45
2022-11-05T17:24:45.980Z,7.47
2022-11-05T17:27:15.861Z,6.70
2022-11-05T17:29:44.201Z,7.38
2022-11-05T17:32:13.170Z,7.10
2022-11-05T17:34:41.441Z,6.13
2022-11-05T17:37:09.811Z,5.80
2022-11-05T17:39:38.085Z,6.07
2022-11-05T17:42:06.251Z,5.75
2022-11-05T17:44:36.021Z,6.80
2022-11-05T17:47:04.144Z,6.20
2022-11-05T17:49:32.410Z,6.25
2022-11-05T17:52:00.800Z,6.57
2022-11-05T17:54:29.249Z,7.25
2022-11-05T17:56:57.509Z,7.13
2022-11-05T17:59:25.691Z,6.72
2022-11-05T18:01:55.221Z,6.13
2022-11-05T18:04:23.478Z,5.50
2022-11-05T18:06:51.629Z,6.15
2022-11-05T18:09:19.794Z,5.63
2022-11-05T18:11:47.968Z,5.47
2022-11-05T18:14:21.314Z,5.40
2022-11-05T18:16:52.384Z,5.20
2022-11-05T18:19:22.036Z,5.18
2022-11-05T18:21:50.138Z,6.43
2022-11-05T18:24:18.351Z,5.20
2022-11-05T18:26:46.471Z,5.47
2022-11-05T18:29:14.793Z,6.03
2022-11-05T18:31:43.097Z,5.82
2022-11-05T18:34:11.539Z,5.28
2022-11-05T18:36:41.358Z,5.03
2022-11-05T18:39:09.769Z,6.35
2022-11-05T18:41:37.903Z,5.22
2022-11-05T18:44:06.692Z,4.80
2022-11-05T18:46:57.229Z,5.45
2022-11-05T18:49:24.775Z,5.55
2022-11-05T18:51:54.783Z,4.60
2022-11-05T18:54:23.112Z,5.88
2022-11-05T18:56:51.319Z,5.15
2022-11-05T18:59:36.730Z,5.40
2022-11-05T19:02:06.969Z,5.55
2022-11-05T19:04:36.743Z,5.45
2022-11-05T19:07:07.053Z,5.00
2022-11-05T19:09:36.053Z,5.32
2022-11-05T19:12:05.150Z,5.28
2022-11-05T19:14:33.366Z,5.35
2022-11-05T19:17:02.565Z,5.72
2022-11-05T19:19:31.172Z,7.15
2022-11-05T19:21:59.385Z,6.10
2022-11-05T19:24:29.123Z,6.40
2022-11-05T19:26:57.578Z,6.80
2022-11-05T19:29:25.852Z,6.45
2022-11-05T19:31:54.029Z,7.07
2022-11-05T19:34:22.303Z,6.45
2022-11-05T19:36:50.448Z,6.90
2022-11-05T19:39:18.628Z,6.60
2022-11-05T19:41:50.148Z,6.72
2022-11-05T19:44:18.439Z,7.15
2022-11-05T19:46:47.032Z,7.50
2022-11-05T19:49:15.276Z,7.25
2022-11-05T19:51:43.812Z,7.28
2022-11-05T19:54:12.127Z,7.45
2022-11-05T19:56:40.274Z,8.07
2022-11-05T19:59:09.889Z,7.03
2022-11-05T20:01:38.518Z,7.43
2022-11-05T20:04:06.954Z,6.93
2022-11-05T20:06:38.657Z,6.97
2022-11-05T20:09:21.578Z,7.00
2022-11-05T20:11:50.140Z,7.03
2022-11-05T20:14:19.770Z,7.07
2022-11-05T20:16:48.361Z,6.68
2022-11-05T20:19:18.643Z,7.25
2022-11-05T20:21:47.363Z,7.72
2022-11-05T20:24:23.343Z,7.47
2022-11-05T20:26:53.439Z,7.65
2022-11-05T20:29:23.432Z,7.13
2022-11-05T20:31:52.018Z,7.38
2022-11-05T20:34:20.485Z,8.18
2022-11-05T20:36:48.565Z,7.53
2022-11-05T20:39:16.967Z,7.85
2022-11-05T20:41:45.416Z,7.93
2022-11-05T20:44:13.576Z,7.55
2022-11-05T20:46:43.159Z,8.32
2022-11-05T20:49:11.371Z,8.43
2022-11-05T20:51:39.543Z,7.47
2022-11-05T20:54:07.913Z,6.88
2022-11-05T20:56:36.387Z,7.25
2022-11-05T20:59:05.814Z,7.05
2022-11-05T21:01:35.477Z,7.38
2022-11-05T21:04:05.637Z,8.02
2022-11-05T21:06:34.929Z,7.32
2022-11-05T21:09:04.132Z,7.25
2022-11-05T21:11:56.355Z,6.80
2022-11-05T21:14:24.666Z,6.40
2022-11-05T21:16:53.184Z,7.45
2022-11-05T21:19:24.029Z,6.22
2022-11-05T21:21:52.185Z,7.35
2022-11-05T21:24:20.323Z,6.72
2022-11-05T21:26:49.988Z,7.07
2022-11-05T21:29:19.222Z,6.43
2022-11-05T21:31:47.646Z,6.68
2022-11-05T21:34:17.053Z,6.43
2022-11-05T21:36:47.128Z,6.90
2022-11-05T21:39:15.472Z,6.80
2022-11-05T21:41:43.721Z,6.50
2022-11-05T21:44:11.925Z,7.28
2022-11-05T21:46:40.048Z,6.85
2022-11-05T21:49:09.530Z,6.55
2022-11-05T21:51:55.141Z,6.50
2022-11-05T21:54:42.361Z,6.00
2022-11-05T21:57:33.006Z,5.95
2022-11-05T22:00:02.067Z,5.90
2022-11-05T22:02:30.795Z,5.90
2022-11-05T22:05:00.125Z,6.15
2022-11-05T22:07:30.775Z,5.85
2022-11-05T22:10:00.858Z,5.97
2022-11-05T22:12:29.645Z,5.78
2022-11-05T22:14:57.891Z,5.55
2022-11-05T22:17:26.646Z,5.85
2022-11-05T22:19:56.265Z,5.15
2022-11-05T22:22:24.370Z,5.53
2022-11-05T22:24:52.476Z,5.18
2022-11-05T22:27:22.786Z,5.10
2022-11-05T22:29:51.337Z,5.35
2022-11-05T22:32:19.910Z,5.85
2022-11-05T22:34:49.601Z,5.55
2022-11-05T22:37:17.753Z,5.43
2022-11-05T22:39:45.930Z,5.30
2022-11-05T22:42:14.309Z,5.80
2022-11-05T22:44:44.029Z,4.32
2022-11-05T22:47:14.053Z,5.38
2022-11-05T22:49:42.569Z,4.97
2022-11-05T22:52:10.783Z,5.40
2022-11-05T22:54:39.596Z,4.93
2022-11-05T22:57:08.627Z,4.70
2022-11-05T22:59:36.881Z,4.68
2022-11-05T23:02:09.807Z,4.47
2022-11-05T23:04:39.128Z,4.82
2022-11-05T23:07:27.708Z,4.68
2022-11-05T23:10:14.196Z,4.95
2022-11-05T23:12:44.558Z,5.13
2022-11-05T23:15:34.490Z,4.40
2022-11-05T23:18:21.372Z,4.45
2022-11-05T23:21:07.352Z,4.28
2022-11-05T23:23:53.440Z,4.30
2022-11-05T23:26:39.033Z,4.57
2022-11-05T23:29:07.175Z,4.40
2022-11-05T23:31:52.662Z,4.30
2022-11-05T23:34:22.539Z,4.30
2022-11-05T23:37:07.905Z,4.47
2022-11-05T23:39:42.213Z,4.88
2022-11-05T23:42:28.793Z,4.68
2022-11-05T23:45:15.020Z,4.50
2022-11-05T23:48:01.258Z,4.05
2022-11-05T23:50:35.669Z,4.07
2022-11-05T23:53:08.236Z,4.93
2022-11-05T23:55:36.867Z,4.47
2022-11-05T23:58:05.015Z,4.45
